createdAt,value
2022-12-04T00:03:16.168Z,2.49
2022-12-04T00:08:16.135Z,2.48
2022-12-04T00:13:15.996Z,2.45
2022-12-04T00:18:15.913Z,2.44
2022-12-04T00:23:15.858Z,2.43
2022-12-04T00:28:15.773Z,2.44
2022-12-04T00:33:15.709Z,2.45
2022-12-04T00:38:15.649Z,2.45
2022-12-04T00:43:15.597Z,2.46
2022-12-04T00:48:15.516Z,2.46
2022-12-04T00:53:15.462Z,2.46
2022-12-04T00:58:15.390Z,2.45
2022-12-04T01:03:15.392Z,2.44
2022-12-04T01:08:38.863Z,2.42
2022-12-04T01:13:31.232Z,2.37
2022-12-04T01:18:31.215Z,2.33
2022-12-04T01:23:31.119Z,2.31
2022-12-04T01:28:31.079Z,2.31
2022-12-04T01:33:30.982Z,2.33
2022-12-04T01:38:30.944Z,2.34
2022-12-04T01:43:30.884Z,2.35
2022-12-04T01:48:30.911Z,2.35
2022-12-04T01:53:30.739Z,2.33
2022-12-04T01:58:30.693Z,2.32
2022-12-04T02:03:30.614Z,2.30
2022-12-04T02:08:30.564Z,2.28
2022-12-04T02:13:30.484Z,2.25
2022-12-04T02:18:30.471Z,2.23
2022-12-04T02:23:30.351Z,2.22
2022-12-04T02:28:30.296Z,2.23
2022-12-04T02:33:30.245Z,2.23
2022-12-04T02:38:30.172Z,2.22
2022-12-04T02:43:30.115Z,2.21
2022-12-04T02:48:30.034Z,2.21
2022-12-04T02:53:29.988Z,2.22
2022-12-04T02:58:29.905Z,2.22
2022-12-04T03:03:29.862Z,2.21
2022-12-04T03:08:29.773Z,2.19
2022-12-04T03:13:29.737Z,2.16
2022-12-04T03:18:29.656Z,2.12
2022-12-04T03:23:29.616Z,2.09
2022-12-04T03:28:29.528Z,2.07
2022-12-04T03:33:29.489Z,2.03
2022-12-04T03:38:29.388Z,1.99
2022-12-04T03:43:29.343Z,1.95
2022-12-04T03:48:29.255Z,1.92
2022-12-04T03:53:29.225Z,1.89
2022-12-04T03:58:29.151Z,1.85
2022-12-04T04:03:29.070Z,1.81
2022-12-04T04:08:29.091Z,1.78
2022-12-04T04:13:28.978Z,1.76
2022-12-04T04:18:28.886Z,1.76
2022-12-04T04:23:28.844Z,1.78
2022-12-04T04:28:28.763Z,1.82
2022-12-04T04:33:28.700Z,1.85
2022-12-04T04:38:28.632Z,1.86
2022-12-04T04:43:28.596Z,1.86
2022-12-04T04:48:28.507Z,1.86
2022-12-04T04:53:28.455Z,1.86
2022-12-04T04:58:28.360Z,1.86
2022-12-04T05:03:28.338Z,1.87
2022-12-04T05:08:28.239Z,1.85
2022-12-04T05:13:28.195Z,1.80
2022-12-04T05:18:28.107Z,1.74
2022-12-04T05:23:28.069Z,1.70
2022-12-04T05:28:27.986Z,1.66
2022-12-04T05:33:27.958Z,1.62
2022-12-04T05:38:27.861Z,1.57
2022-12-04T05:43:27.811Z,1.52
2022-12-04T05:48:27.709Z,1.47
2022-12-04T05:53:27.688Z,1.44
2022-12-04T05:58:27.608Z,1.41
2022-12-04T06:03:27.587Z,1.40
2022-12-04T06:08:27.479Z,1.41
2022-12-04T06:13:27.443Z,1.41
2022-12-04T06:18:27.339Z,1.40
2022-12-04T06:23:27.303Z,1.39
2022-12-04T06:28:27.225Z,1.37
2022-12-04T06:33:27.169Z,1.36
2022-12-04T06:38:27.082Z,1.36
2022-12-04T06:43:27.041Z,1.38
2022-12-04T06:48:26.959Z,1.39
2022-12-04T06:53:26.887Z,1.40
2022-12-04T06:58:26.853Z,1.43
2022-12-04T07:03:37.709Z,1.44
2022-12-04T07:08:30.121Z,1.41
2022-12-04T07:13:30.035Z,1.38
2022-12-04T07:18:29.979Z,1.38
2022-12-04T07:23:29.895Z,1.40
2022-12-04T07:28:29.885Z,1.44
2022-12-04T07:33:29.788Z,1.47
2022-12-04T07:38:29.733Z,1.49
2022-12-04T07:43:29.643Z,1.51
2022-12-04T07:48:33.342Z,1.54
2022-12-04T07:53:29.488Z,1.57
2022-12-04T07:58:29.480Z,1.59
2022-12-04T08:03:29.388Z,1.60
2022-12-04T08:08:29.343Z,1.61
2022-12-04T08:13:29.251Z,1.63
2022-12-04T08:18:29.211Z,1.65
2022-12-04T08:23:29.132Z,1.66
2022-12-04T08:28:29.079Z,1.69
2022-12-04T08:33:28.999Z,1.73
2022-12-04T08:38:28.970Z,1.77
2022-12-04T08:43:28.863Z,1.81
2022-12-04T08:48:28.827Z,1.88
2022-12-04T08:53:28.760Z,1.96
2022-12-04T08:58:28.701Z,2.05
2022-12-04T09:03:30.986Z,2.16
2022-12-04T09:08:28.580Z,2.29
2022-12-04T09:13:28.480Z,2.41
2022-12-04T09:18:28.438Z,2.50
2022-12-04T09:23:28.358Z,2.57
2022-12-04T09:28:28.303Z,2.65
2022-12-04T09:33:28.224Z,2.71
2022-12-04T09:38:28.172Z,2.76
2022-12-04T09:43:28.102Z,2.80
2022-12-04T09:48:28.048Z,2.82
2022-12-04T09:53:27.973Z,2.85
2022-12-04T09:58:27.935Z,2.89
2022-12-04T10:03:28.065Z,2.92
2022-12-04T10:08:27.806Z,2.93
2022-12-04T10:13:27.699Z,2.95
2022-12-04T10:18:27.667Z,2.99
2022-12-04T10:23:27.613Z,3.05
2022-12-04T10:28:27.561Z,3.13
2022-12-04T10:33:27.464Z,3.21
2022-12-04T10:38:27.412Z,3.28
2022-12-04T10:43:27.343Z,3.33
2022-12-04T10:48:27.285Z,3.37
2022-12-04T10:53:27.213Z,3.41
2022-12-04T10:58:27.190Z,3.45
2022-12-04T11:03:27.141Z,3.50
2022-12-04T11:08:27.155Z,3.56
2022-12-04T11:13:26.971Z,3.61
2022-12-04T11:18:26.893Z,3.64
2022-12-04T11:23:26.833Z,3.64
2022-12-04T11:28:42.806Z,3.62
2022-12-04T11:33:27.694Z,3.61
2022-12-04T11:38:26.670Z,3.60
2022-12-04T11:43:26.560Z,3.61
2022-12-04T11:48:26.559Z,3.62
2022-12-04T11:53:26.434Z,3.64
2022-12-04T11:58:26.390Z,3.66
2022-12-04T12:03:26.596Z,3.70
2022-12-04T12:08:26.250Z,3.76
2022-12-04T12:13:26.189Z,3.81
2022-12-04T12:18:26.127Z,3.82
2022-12-04T12:23:26.053Z,3.78
2022-12-04T12:28:26.012Z,3.70
2022-12-04T12:33:26.098Z,3.63
2022-12-04T12:38:25.868Z,3.59
2022-12-04T12:43:25.933Z,3.57
2022-12-04T12:48:25.816Z,3.57
2022-12-04T12:53:25.688Z,3.57
2022-12-04T12:58:25.626Z,3.57
2022-12-04T13:03:25.515Z,3.58
2022-12-04T13:08:25.500Z,3.59
2022-12-04T13:13:25.440Z,3.59
2022-12-04T13:18:25.369Z,3.59
2022-12-04T13:23:25.289Z,3.58
2022-12-04T13:28:25.248Z,3.56
2022-12-04T13:33:25.170Z,3.53
2022-12-04T13:38:25.119Z,3.50
2022-12-04T13:43:25.030Z,3.48
2022-12-04T13:48:24.998Z,3.46
2022-12-04T13:53:24.934Z,3.44
2022-12-04T13:58:24.855Z,3.42
2022-12-04T14:03:24.772Z,3.42
2022-12-04T14:08:24.799Z,3.43
2022-12-04T14:13:24.645Z,3.44
2022-12-04T14:18:24.632Z,3.43
2022-12-04T14:23:24.526Z,3.42
2022-12-04T14:28:24.503Z,3.41
2022-12-04T14:33:24.409Z,3.40
2022-12-04T14:38:24.373Z,3.38
2022-12-04T14:43:24.303Z,3.38
2022-12-04T14:48:24.228Z,3.40
2022-12-04T14:53:24.141Z,3.41
2022-12-04T14:58:24.116Z,3.41
2022-12-04T15:03:24.055Z,3.39
2022-12-04T15:08:24.030Z,3.35
2022-12-04T15:13:23.883Z,3.28
2022-12-04T15:18:23.840Z,3.19
2022-12-04T15:23:23.858Z,3.11
2022-12-04T15:28:23.726Z,3.03
2022-12-04T15:33:23.633Z,2.96
2022-12-04T15:38:23.622Z,2.90
2022-12-04T15:43:23.519Z,2.86
2022-12-04T15:48:23.456Z,2.82
2022-12-04T15:53:23.386Z,2.78
2022-12-04T15:58:23.385Z,2.76
2022-12-04T16:03:23.290Z,2.76
2022-12-04T16:08:23.195Z,2.76
2022-12-04T16:13:23.214Z,2.77
2022-12-04T16:18:23.069Z,2.78
2022-12-04T16:23:23.011Z,2.79
2022-12-04T16:28:22.939Z,2.80
2022-12-04T16:33:22.863Z,2.83
2022-12-04T16:38:22.808Z,2.85
2022-12-04T16:43:22.747Z,2.88
2022-12-04T16:48:22.731Z,2.92
2022-12-04T16:53:22.620Z,2.96
2022-12-04T16:58:22.570Z,3.00
2022-12-04T17:03:22.500Z,3.04
2022-12-04T17:08:22.481Z,3.07
2022-12-04T17:13:22.334Z,3.10
2022-12-04T17:18:22.298Z,3.12
2022-12-04T17:23:22.226Z,3.15
2022-12-04T17:28:22.160Z,3.16
2022-12-04T17:33:22.100Z,3.17
2022-12-04T17:38:22.079Z,3.17
2022-12-04T17:43:22.385Z,3.17
2022-12-04T17:48:21.920Z,3.17
2022-12-04T17:53:21.807Z,3.17
2022-12-04T17:58:21.782Z,3.17
2022-12-04T18:03:21.785Z,3.17
2022-12-04T18:08:21.722Z,3.16
2022-12-04T18:13:21.572Z,3.16
2022-12-04T18:18:21.519Z,3.15
2022-12-04T18:23:21.449Z,3.15
2022-12-04T18:28:21.410Z,3.13
2022-12-04T18:33:21.321Z,3.12
2022-12-04T18:38:22.065Z,3.12
2022-12-04T18:43:21.200Z,3.12
2022-12-04T18:48:21.152Z,3.12
2022-12-04T18:53:21.071Z,3.12
2022-12-04T18:58:21.019Z,3.12
2022-12-04T19:03:20.945Z,3.12
2022-12-04T19:08:20.981Z,3.12
2022-12-04T19:13:20.803Z,3.11
2022-12-04T19:18:20.765Z,3.11
2022-12-04T19:23:20.702Z,3.10
2022-12-04T19:28:20.669Z,3.08
2022-12-04T19:33:20.535Z,3.05
2022-12-04T19:38:20.500Z,3.03
2022-12-04T19:43:20.461Z,3.02
2022-12-04T19:48:20.375Z,3.01
2022-12-04T19:53:20.295Z,3.01
2022-12-04T19:58:20.253Z,3.01
2022-12-04T20:03:20.183Z,3.03
2022-12-04T20:08:20.122Z,3.04
2022-12-04T20:13:20.052Z,3.04
2022-12-04T20:18:19.985Z,3.04
2022-12-04T20:23:19.911Z,3.03
2022-12-04T20:28:19.900Z,2.99
2022-12-04T20:33:19.785Z,2.93
2022-12-04T20:38:19.750Z,2.87
2022-12-04T20:43:19.668Z,2.83
2022-12-04T20:48:19.606Z,2.83
2022-12-04T20:53:19.556Z,2.86
2022-12-04T20:58:19.490Z,2.91
2022-12-04T21:03:19.406Z,2.96
2022-12-04T21:08:19.369Z,3.01
2022-12-04T21:13:19.268Z,3.06
2022-12-04T21:18:19.208Z,3.10
2022-12-04T21:23:19.160Z,3.14
2022-12-04T21:28:19.099Z,3.17
2022-12-04T21:33:19.030Z,3.20
2022-12-04T21:38:19.087Z,3.22
2022-12-04T21:43:18.899Z,3.22
2022-12-04T21:48:18.837Z,3.22
2022-12-04T21:53:18.769Z,3.20
2022-12-04T21:58:18.725Z,3.17
2022-12-04T22:03:19.465Z,3.14
2022-12-04T22:08:18.622Z,3.11
2022-12-04T22:13:18.499Z,3.07
2022-12-04T22:18:18.464Z,3.02
2022-12-04T22:23:18.368Z,2.96
2022-12-04T22:28:18.324Z,2.90
2022-12-04T22:33:18.241Z,2.83
2022-12-04T22:38:18.199Z,2.77
2022-12-04T22:43:18.113Z,2.71
2022-12-04T22:48:18.060Z,2.66
2022-12-04T22:53:18.026Z,2.62
2022-12-04T22:58:17.939Z,2.59
2022-12-04T23:03:17.958Z,2.56
2022-12-04T23:08:17.882Z,2.54
2022-12-04T23:13:17.712Z,2.51
2022-12-04T23:18:17.683Z,2.49
2022-12-04T23:23:17.628Z,2.48
2022-12-04T23:28:17.555Z,2.47
2022-12-04T23:33:17.470Z,2.46
2022-12-04T23:38:17.411Z,2.44
2022-12-04T23:43:17.363Z,2.43
2022-12-04T23:48:17.293Z,2.40
2022-12-04T23:53:17.237Z,2.38
2022-12-04T23:58:17.151Z,2.35
